createdAt,value
2018-06-08T00:01:33.427Z,18.10
2018-06-08T00:04:01.889Z,18.20
2018-06-08T00:06:30.384Z,18.40
2018-06-08T00:08:58.809Z,18.40
2018-06-08T00:11:27.223Z,18.30
2018-06-08T00:13:55.666Z,18.30
2018-06-08T00:16:24.093Z,18.20
2018-06-08T00:18:52.597Z,18.20
2018-06-08T00:21:21.165Z,18.10
2018-06-08T00:23:49.748Z,18.10
2018-06-08T00:26:18.242Z,18.10
2018-06-08T00:28:46.710Z,18.10
2018-06-08T00:31:15.261Z,18.10
2018-06-08T00:33:43.761Z,18.10
2018-06-08T00:36:12.269Z,18.10
2018-06-08T00:38:41.003Z,18.10
2018-06-08T00:43:37.521Z,18.10
2018-06-08T00:46:06.318Z,18.10
2018-06-08T00:48:34.786Z,18.00
2018-06-08T00:51:03.444Z,18.10
2018-06-08T00:53:31.925Z,18.10
2018-06-08T00:56:00.354Z,18.10
2018-06-08T00:58:28.850Z,18.00
2018-06-08T01:00:57.359Z,18.00
2018-06-08T01:03:25.997Z,17.90
2018-06-08T01:05:54.400Z,17.90
2018-06-08T01:08:22.857Z,17.80
2018-06-08T01:10:51.366Z,17.80
2018-06-08T01:13:19.862Z,17.80
2018-06-08T01:15:48.435Z,17.70
2018-06-08T01:18:16.791Z,17.80
2018-06-08T01:20:45.280Z,17.80
2018-06-08T01:23:13.695Z,17.70
2018-06-08T01:25:42.210Z,17.60
2018-06-08T01:28:10.656Z,17.50
2018-06-08T01:30:39.150Z,17.40
2018-06-08T01:33:07.652Z,17.40
2018-06-08T01:35:36.201Z,17.40
2018-06-08T01:38:04.712Z,17.40
2018-06-08T01:40:33.259Z,17.40
2018-06-08T01:43:01.743Z,17.40
2018-06-08T01:45:31.295Z,17.30
2018-06-08T01:47:59.784Z,17.20
2018-06-08T01:50:28.222Z,17.20
2018-06-08T01:52:56.744Z,17.10
2018-06-08T01:55:25.410Z,17.20
2018-06-08T01:57:53.878Z,17.10
2018-06-08T02:00:22.359Z,17.00
2018-06-08T02:02:50.971Z,17.00
2018-06-08T02:05:19.406Z,17.00
2018-06-08T02:07:47.896Z,17.00
2018-06-08T02:10:16.358Z,17.00
2018-06-08T02:12:44.784Z,17.00
2018-06-08T02:15:13.165Z,17.10
2018-06-08T02:17:41.532Z,17.10
2018-06-08T02:20:10.097Z,17.00
2018-06-08T02:22:39.065Z,16.90
2018-06-08T02:25:07.528Z,16.90
2018-06-08T02:27:36.036Z,17.00
2018-06-08T02:30:04.593Z,16.90
2018-06-08T02:32:33.104Z,16.90
2018-06-08T02:35:01.540Z,16.90
2018-06-08T02:37:30.063Z,16.90
2018-06-08T02:39:58.558Z,16.80
2018-06-08T02:42:27.017Z,16.80
2018-06-08T02:44:55.440Z,16.80
2018-06-08T02:47:23.954Z,16.70
2018-06-08T02:49:52.411Z,16.80
2018-06-08T02:52:20.853Z,16.80
2018-06-08T02:54:49.372Z,16.70
2018-06-08T02:57:17.889Z,16.70
2018-06-08T02:59:46.408Z,16.70
2018-06-08T03:02:14.823Z,16.60
2018-06-08T03:04:43.304Z,16.60
2018-06-08T03:07:11.745Z,16.60
2018-06-08T03:09:40.207Z,16.70
2018-06-08T03:12:08.682Z,16.70
2018-06-08T03:14:37.106Z,16.70
2018-06-08T03:19:33.732Z,16.60
2018-06-08T03:22:02.182Z,16.60
2018-06-08T03:24:30.725Z,16.70
2018-06-08T03:26:59.205Z,16.60
2018-06-08T03:29:27.716Z,16.60
2018-06-08T03:31:56.178Z,16.60
2018-06-08T03:34:24.712Z,16.60
2018-06-08T03:36:53.195Z,16.60
2018-06-08T03:39:21.627Z,16.50
2018-06-08T03:41:50.206Z,16.50
2018-06-08T03:44:18.666Z,16.50
2018-06-08T03:46:47.106Z,16.50
2018-06-08T03:49:15.580Z,16.50
2018-06-08T03:51:43.964Z,16.60
2018-06-08T03:54:12.335Z,16.50
2018-06-08T03:56:40.729Z,16.50
2018-06-08T03:59:09.166Z,16.60
2018-06-08T04:01:37.617Z,16.70
2018-06-08T04:04:06.034Z,16.70
2018-06-08T04:06:34.496Z,16.70
2018-06-08T04:09:03.209Z,16.80
2018-06-08T04:11:31.716Z,16.90
2018-06-08T04:14:00.134Z,16.90
2018-06-08T04:16:29.415Z,16.90
2018-06-08T04:18:57.967Z,16.90
2018-06-08T04:21:26.402Z,17.00
2018-06-08T04:23:54.944Z,17.10
2018-06-08T04:26:23.483Z,17.10
2018-06-08T04:28:51.926Z,17.00
2018-06-08T04:31:21.384Z,17.10
2018-06-08T04:33:49.837Z,17.20
2018-06-08T04:36:18.282Z,17.20
2018-06-08T04:38:46.761Z,17.20
2018-06-08T04:41:15.148Z,17.30
2018-06-08T04:43:43.667Z,17.30
2018-06-08T04:46:12.140Z,17.30
2018-06-08T04:48:40.584Z,17.40
2018-06-08T04:51:09.113Z,17.50
2018-06-08T04:53:37.628Z,17.50
2018-06-08T04:56:06.143Z,17.60
2018-06-08T04:58:34.492Z,17.80
2018-06-08T05:03:31.152Z,18.20
2018-06-08T05:05:59.630Z,18.30
2018-06-08T05:08:28.204Z,18.40
2018-06-08T05:10:56.724Z,18.60
2018-06-08T05:13:25.126Z,18.70
2018-06-08T05:15:53.666Z,18.70
2018-06-08T05:18:22.061Z,18.70
2018-06-08T05:20:50.497Z,18.80
2018-06-08T05:23:18.920Z,18.80
2018-06-08T05:25:47.400Z,18.80
2018-06-08T05:28:15.904Z,19.00
2018-06-08T05:30:44.389Z,19.00
2018-06-08T05:33:12.866Z,19.10
2018-06-08T05:35:41.363Z,19.10
2018-06-08T05:38:09.866Z,19.00
2018-06-08T05:40:38.299Z,19.10
2018-06-08T05:43:06.745Z,19.00
2018-06-08T05:45:35.244Z,18.90
2018-06-08T05:48:03.794Z,18.90
2018-06-08T05:50:32.230Z,18.90
2018-06-08T05:53:00.716Z,19.20
2018-06-08T05:55:29.198Z,19.40
2018-06-08T05:57:57.566Z,19.40
2018-06-08T06:00:26.044Z,19.30
2018-06-08T06:02:54.564Z,19.60
2018-06-08T06:05:22.968Z,19.50
2018-06-08T06:07:51.599Z,19.50
2018-06-08T06:10:20.168Z,19.90
2018-06-08T06:12:48.607Z,20.10
2018-06-08T06:15:17.148Z,20.10
2018-06-08T06:17:45.705Z,20.10
2018-06-08T06:20:14.130Z,19.70
2018-06-08T06:22:43.651Z,19.90
2018-06-08T06:25:12.228Z,19.90
2018-06-08T06:27:40.809Z,20.00
2018-06-08T06:30:09.323Z,20.00
2018-06-08T06:32:37.821Z,20.10
2018-06-08T06:35:06.268Z,20.20
2018-06-08T06:37:34.752Z,20.10
2018-06-08T06:40:03.247Z,20.20
2018-06-08T06:42:31.751Z,20.60
2018-06-08T06:45:01.281Z,20.80
2018-06-08T06:47:29.742Z,20.90
2018-06-08T06:49:58.260Z,21.50
2018-06-08T06:52:26.656Z,22.00
2018-06-08T06:54:55.111Z,22.10
2018-06-08T06:57:23.777Z,22.50
2018-06-08T06:59:52.226Z,22.90
2018-06-08T07:02:20.679Z,23.40
2018-06-08T07:04:49.109Z,23.70
2018-06-08T07:07:17.593Z,23.80
2018-06-08T07:09:46.091Z,24.00
2018-06-08T07:12:14.562Z,24.60
2018-06-08T07:14:42.985Z,24.80
2018-06-08T07:17:11.469Z,24.80
2018-06-08T07:19:39.858Z,25.00
2018-06-08T07:22:08.331Z,25.30
2018-06-08T07:24:36.841Z,25.50
2018-06-08T07:27:05.342Z,25.80
2018-06-08T07:29:33.872Z,25.70
2018-06-08T07:32:02.319Z,25.90
2018-06-08T07:34:30.798Z,25.70
2018-06-08T07:36:59.225Z,25.50
2018-06-08T07:39:27.727Z,25.00
2018-06-08T07:41:56.203Z,24.90
2018-06-08T07:44:24.677Z,24.90
2018-06-08T07:46:53.234Z,24.60
2018-06-08T07:49:21.716Z,24.30
2018-06-08T07:51:50.415Z,24.00
2018-06-08T07:54:19.058Z,23.60
2018-06-08T07:56:47.628Z,23.90
2018-06-08T07:59:16.090Z,24.70
2018-06-08T08:01:44.704Z,25.30
2018-06-08T08:04:13.222Z,25.70
2018-06-08T08:06:41.965Z,26.40
2018-06-08T08:09:10.611Z,26.10
2018-06-08T08:11:39.060Z,25.90
2018-06-08T08:14:07.576Z,26.40
2018-06-08T08:16:36.102Z,26.10
2018-06-08T08:19:04.584Z,26.10
2018-06-08T08:21:32.979Z,26.50
2018-06-08T08:24:01.459Z,26.90
2018-06-08T08:26:29.910Z,27.20
2018-06-08T08:28:58.386Z,27.00
2018-06-08T08:31:26.802Z,27.20
2018-06-08T08:33:55.220Z,27.00
2018-06-08T08:36:23.648Z,26.80
2018-06-08T08:38:52.233Z,25.70
2018-06-08T08:41:20.875Z,25.50
2018-06-08T08:43:49.466Z,25.60
2018-06-08T08:46:18.014Z,26.30
2018-06-08T08:48:46.502Z,26.50
2018-06-08T08:51:14.944Z,26.70
2018-06-08T08:53:43.409Z,26.50
2018-06-08T08:56:11.922Z,26.20
2018-06-08T08:58:40.416Z,26.30
2018-06-08T09:01:08.792Z,26.70
2018-06-08T09:03:37.219Z,26.80
2018-06-08T09:06:05.737Z,26.40
2018-06-08T09:08:34.154Z,26.70
2018-06-08T09:11:02.782Z,26.70
2018-06-08T09:13:31.217Z,26.60
2018-06-08T09:15:59.686Z,26.30
2018-06-08T09:18:28.102Z,26.00
2018-06-08T09:20:56.676Z,26.20
2018-06-08T09:23:25.127Z,26.80
2018-06-08T09:25:53.591Z,26.90
2018-06-08T09:28:22.037Z,27.50
2018-06-08T09:30:50.474Z,27.30
2018-06-08T09:33:18.867Z,27.50
2018-06-08T09:35:47.436Z,27.30
2018-06-08T09:38:15.990Z,27.20
2018-06-08T09:40:44.590Z,27.30
2018-06-08T09:43:13.072Z,27.00
2018-06-08T09:45:41.616Z,27.10
2018-06-08T09:48:10.200Z,27.00
2018-06-08T09:50:38.704Z,26.20
2018-06-08T09:53:07.154Z,25.70
2018-06-08T09:55:35.638Z,25.70
2018-06-08T09:58:04.060Z,25.50
2018-06-08T10:00:37.762Z,24.90
2018-06-08T10:03:06.265Z,25.10
2018-06-08T10:05:34.698Z,25.50
2018-06-08T10:08:03.233Z,26.30
2018-06-08T10:10:31.658Z,26.60
2018-06-08T10:13:00.109Z,26.30
2018-06-08T10:15:28.594Z,26.20
2018-06-08T10:17:57.041Z,27.00
2018-06-08T10:20:25.521Z,27.50
2018-06-08T10:22:54.025Z,27.70
2018-06-08T10:25:22.389Z,27.50
2018-06-08T10:27:50.747Z,27.60
2018-06-08T10:30:19.164Z,27.70
2018-06-08T10:32:47.517Z,28.00
2018-06-08T10:35:15.936Z,27.70
2018-06-08T10:37:44.362Z,27.50
2018-06-08T10:40:12.768Z,27.80
2018-06-08T10:42:41.156Z,27.70
2018-06-08T10:45:09.610Z,27.20
2018-06-08T10:47:38.009Z,27.60
2018-06-08T10:50:06.446Z,27.80
2018-06-08T10:52:34.755Z,27.50
2018-06-08T10:55:03.188Z,27.20
2018-06-08T10:57:31.978Z,27.30
2018-06-08T11:00:00.358Z,26.10
2018-06-08T11:02:28.883Z,26.30
2018-06-08T11:04:57.373Z,26.30
2018-06-08T11:07:25.873Z,26.40
2018-06-08T11:09:54.324Z,27.00
2018-06-08T11:12:22.752Z,26.90
2018-06-08T11:14:51.391Z,26.80
2018-06-08T11:17:19.890Z,27.10
2018-06-08T11:19:48.439Z,27.10
2018-06-08T11:22:16.947Z,27.70
2018-06-08T11:24:45.534Z,26.80
2018-06-08T11:27:14.096Z,26.70
2018-06-08T11:29:42.597Z,26.40
2018-06-08T11:32:11.108Z,26.80
2018-06-08T11:34:39.550Z,27.40
2018-06-08T11:37:07.954Z,27.60
2018-06-08T11:39:36.390Z,27.10
2018-06-08T11:42:04.829Z,27.20
2018-06-08T11:44:33.227Z,27.00
2018-06-08T11:47:01.775Z,27.00
2018-06-08T11:49:30.335Z,27.10
2018-06-08T11:51:58.886Z,26.70
2018-06-08T11:54:27.418Z,27.00
2018-06-08T11:56:55.873Z,27.10
2018-06-08T11:59:24.347Z,27.10
2018-06-08T12:01:52.843Z,27.10
2018-06-08T12:04:21.418Z,27.40
2018-06-08T12:06:49.901Z,26.60
2018-06-08T12:09:18.359Z,27.30
2018-06-08T12:11:46.922Z,27.50
2018-06-08T12:14:15.433Z,27.20
2018-06-08T12:16:43.935Z,27.20
2018-06-08T12:19:12.300Z,26.90
2018-06-08T12:21:40.690Z,26.50
2018-06-08T12:24:09.129Z,26.80
2018-06-08T12:26:37.535Z,27.00
2018-06-08T12:29:06.005Z,26.90
2018-06-08T12:31:34.442Z,26.40
2018-06-08T12:34:02.899Z,26.10
2018-06-08T12:36:31.411Z,26.10
2018-06-08T12:38:59.878Z,26.20
2018-06-08T12:41:28.436Z,26.60
2018-06-08T12:43:56.854Z,27.00
2018-06-08T12:46:25.498Z,27.20
2018-06-08T12:48:54.000Z,27.10
2018-06-08T12:51:22.391Z,27.20
2018-06-08T12:53:50.845Z,26.90
2018-06-08T12:56:19.220Z,26.60
2018-06-08T12:58:47.656Z,26.90
2018-06-08T13:01:16.142Z,27.10
2018-06-08T13:03:44.547Z,27.30
2018-06-08T13:06:12.965Z,26.70
2018-06-08T13:08:42.063Z,26.70
2018-06-08T13:11:10.868Z,26.60
2018-06-08T13:13:39.452Z,26.70
2018-06-08T13:16:07.983Z,27.10
2018-06-08T13:18:36.459Z,27.00
2018-06-08T13:21:04.955Z,26.90
2018-06-08T13:23:33.457Z,26.90
2018-06-08T13:28:30.009Z,27.00
2018-06-08T13:30:58.542Z,27.10
2018-06-08T13:33:27.054Z,27.40
2018-06-08T13:38:23.659Z,27.40
2018-06-08T13:40:52.121Z,27.70
2018-06-08T13:43:20.653Z,27.60
2018-06-08T13:45:49.040Z,27.00
2018-06-08T13:48:17.524Z,26.90
2018-06-08T13:50:46.099Z,27.20
2018-06-08T13:53:14.610Z,27.50
2018-06-08T13:55:44.095Z,27.40
2018-06-08T13:58:12.541Z,27.20
2018-06-08T14:00:41.084Z,27.30
2018-06-08T14:03:09.504Z,27.50
2018-06-08T14:05:38.067Z,26.90
2018-06-08T14:08:06.576Z,27.10
2018-06-08T14:10:35.104Z,27.10
2018-06-08T14:13:03.596Z,27.30
2018-06-08T14:15:32.051Z,27.60
2018-06-08T14:18:00.481Z,27.70
2018-06-08T14:20:29.024Z,27.60
2018-06-08T14:22:57.493Z,27.20
2018-06-08T14:25:25.867Z,27.00
2018-06-08T14:27:54.375Z,27.20
2018-06-08T14:30:22.784Z,27.30
2018-06-08T14:32:51.254Z,27.30
2018-06-08T14:35:19.749Z,27.20
2018-06-08T14:37:48.179Z,27.10
2018-06-08T14:40:16.600Z,27.10
2018-06-08T14:42:45.516Z,27.00
2018-06-08T14:45:13.972Z,27.10
2018-06-08T14:47:42.381Z,27.30
2018-06-08T14:50:10.833Z,27.30
2018-06-08T14:52:39.280Z,27.10
2018-06-08T14:55:07.768Z,26.90
2018-06-08T14:57:36.184Z,26.90
2018-06-08T15:00:05.145Z,26.70
2018-06-08T15:02:33.639Z,26.90
2018-06-08T15:05:02.174Z,26.90
2018-06-08T15:07:30.590Z,26.60
2018-06-08T15:09:59.038Z,26.60
2018-06-08T15:12:27.514Z,26.20
2018-06-08T15:14:55.947Z,25.90
2018-06-08T15:17:24.528Z,25.40
2018-06-08T15:19:52.993Z,24.80
2018-06-08T15:22:21.445Z,24.80
2018-06-08T15:24:49.867Z,24.70
2018-06-08T15:27:18.392Z,24.70
2018-06-08T15:29:46.921Z,24.80
2018-06-08T15:32:15.455Z,24.90
2018-06-08T15:34:43.943Z,25.00
2018-06-08T15:37:12.446Z,25.00
2018-06-08T15:39:40.963Z,24.70
2018-06-08T15:42:09.390Z,24.60
2018-06-08T15:44:37.913Z,24.20
2018-06-08T15:47:06.408Z,24.00
2018-06-08T15:49:34.876Z,23.70
2018-06-08T15:52:03.355Z,23.30
2018-06-08T15:54:31.737Z,23.20
2018-06-08T15:57:00.175Z,23.40
2018-06-08T15:59:28.614Z,23.50
2018-06-08T16:01:56.991Z,23.30
2018-06-08T16:04:25.473Z,23.30
2018-06-08T16:06:53.866Z,23.50
2018-06-08T16:09:22.829Z,23.60
2018-06-08T16:11:51.306Z,23.60
2018-06-08T16:14:20.464Z,23.60
2018-06-08T16:16:48.937Z,23.40
2018-06-08T16:19:17.398Z,23.50
2018-06-08T16:21:45.961Z,23.60
2018-06-08T16:24:14.524Z,23.60
2018-06-08T16:26:42.976Z,23.50
2018-06-08T16:29:11.917Z,23.50
2018-06-08T16:31:40.742Z,23.50
2018-06-08T16:34:09.317Z,23.50
2018-06-08T16:36:37.814Z,23.30
2018-06-08T16:39:07.588Z,23.20
2018-06-08T16:41:36.106Z,23.40
2018-06-08T16:44:04.565Z,23.50
2018-06-08T16:46:33.082Z,23.60
2018-06-08T16:49:01.488Z,23.70
2018-06-08T16:51:29.941Z,23.80
2018-06-08T16:53:58.477Z,23.90
2018-06-08T16:56:27.010Z,24.00
2018-06-08T16:58:55.567Z,24.10
2018-06-08T17:01:23.976Z,24.20
2018-06-08T17:03:52.396Z,24.10
2018-06-08T17:06:21.097Z,24.10
2018-06-08T17:08:49.609Z,24.00
2018-06-08T17:11:18.093Z,24.10
2018-06-08T17:13:46.554Z,24.10
2018-06-08T17:16:15.034Z,24.20
2018-06-08T17:18:43.596Z,23.90
2018-06-08T17:21:11.998Z,23.90
2018-06-08T17:23:40.532Z,23.90
2018-06-08T17:26:09.027Z,23.70
2018-06-08T17:28:37.545Z,23.90
2018-06-08T17:33:34.176Z,23.90
2018-06-08T17:36:02.655Z,23.90
2018-06-08T17:38:31.110Z,23.80
2018-06-08T17:40:59.667Z,23.80
2018-06-08T17:43:28.194Z,23.80
2018-06-08T17:45:56.644Z,23.60
2018-06-08T17:48:25.136Z,23.60
2018-06-08T17:50:53.655Z,23.60
2018-06-08T17:53:22.332Z,23.50
2018-06-08T17:55:50.802Z,23.50
2018-06-08T17:58:19.324Z,23.40
2018-06-08T18:00:47.821Z,23.40
2018-06-08T18:03:16.350Z,23.40
2018-06-08T18:05:44.972Z,23.30
2018-06-08T18:08:13.568Z,23.20
2018-06-08T18:10:42.019Z,23.10
2018-06-08T18:13:12.079Z,23.00
2018-06-08T18:15:40.548Z,22.90
2018-06-08T18:18:10.774Z,22.90
2018-06-08T18:20:39.376Z,22.80
2018-06-08T18:23:07.869Z,22.80
2018-06-08T18:25:36.512Z,22.80
2018-06-08T18:28:04.961Z,22.70
2018-06-08T18:30:33.426Z,22.70
2018-06-08T18:33:02.029Z,22.70
2018-06-08T18:35:30.513Z,22.60
2018-06-08T18:37:58.951Z,22.50
2018-06-08T18:40:27.490Z,22.30
2018-06-08T18:42:55.987Z,22.20
2018-06-08T18:45:24.524Z,22.00
2018-06-08T18:47:53.130Z,22.00
2018-06-08T18:50:21.696Z,21.90
2018-06-08T18:52:50.240Z,21.80
2018-06-08T18:55:18.752Z,21.70
2018-06-08T18:57:47.240Z,21.60
2018-06-08T19:00:15.865Z,21.60
2018-06-08T19:02:44.370Z,21.50
2018-06-08T19:05:12.884Z,21.30
2018-06-08T19:07:41.855Z,21.20
2018-06-08T19:10:10.362Z,21.20
2018-06-08T19:12:38.847Z,21.20
2018-06-08T19:15:07.268Z,21.00
2018-06-08T19:17:35.715Z,20.90
2018-06-08T19:20:04.348Z,20.90
2018-06-08T19:22:32.816Z,20.80
2018-06-08T19:25:01.389Z,20.80
2018-06-08T19:27:29.847Z,21.00
2018-06-08T19:29:58.377Z,21.20
2018-06-08T19:32:26.863Z,21.10
2018-06-08T19:34:55.349Z,21.10
2018-06-08T19:37:23.910Z,21.10
2018-06-08T19:39:52.342Z,21.10
2018-06-08T19:42:20.797Z,21.10
2018-06-08T19:44:49.193Z,21.00
2018-06-08T19:47:17.663Z,21.00
2018-06-08T19:49:46.141Z,21.00
2018-06-08T19:52:14.582Z,21.10
2018-06-08T19:54:43.064Z,21.00
2018-06-08T19:57:11.660Z,20.80
2018-06-08T19:59:40.183Z,20.50
2018-06-08T20:02:08.689Z,20.40
2018-06-08T20:04:37.159Z,20.20
2018-06-08T20:07:05.665Z,20.10
2018-06-08T20:09:34.128Z,20.10
2018-06-08T20:12:02.648Z,20.10
2018-06-08T20:14:31.138Z,20.00
2018-06-08T20:16:59.553Z,19.90
2018-06-08T20:19:28.100Z,19.80
2018-06-08T20:21:56.464Z,19.80
2018-06-08T20:24:24.939Z,19.80
2018-06-08T20:26:53.905Z,19.70
2018-06-08T20:29:22.379Z,19.70
2018-06-08T20:31:50.880Z,19.70
2018-06-08T20:34:19.374Z,19.70
2018-06-08T20:36:47.869Z,19.60
2018-06-08T20:39:16.368Z,19.60
2018-06-08T20:41:44.911Z,19.60
2018-06-08T20:44:13.362Z,19.60
2018-06-08T20:46:41.832Z,19.70
2018-06-08T20:49:10.454Z,19.70
2018-06-08T20:51:38.933Z,19.70
2018-06-08T20:54:07.357Z,19.80
2018-06-08T20:56:35.836Z,19.70
2018-06-08T20:59:04.406Z,19.60
2018-06-08T21:01:32.899Z,19.50
2018-06-08T21:04:01.490Z,19.50
2018-06-08T21:06:30.223Z,19.50
2018-06-08T21:08:58.738Z,19.50
2018-06-08T21:11:27.826Z,19.50
2018-06-08T21:13:56.444Z,19.40
2018-06-08T21:16:29.732Z,19.40
2018-06-08T21:19:00.660Z,19.40
2018-06-08T21:21:46.843Z,19.30
2018-06-08T21:24:15.892Z,19.40
2018-06-08T21:26:45.254Z,19.50
2018-06-08T21:29:14.681Z,19.40
2018-06-08T21:31:43.252Z,19.30
2018-06-08T21:34:12.315Z,19.30
2018-06-08T21:36:41.374Z,19.20
2018-06-08T21:39:09.842Z,19.20
2018-06-08T21:41:38.484Z,19.10
2018-06-08T21:44:07.348Z,19.10
2018-06-08T21:46:36.040Z,19.10
2018-06-08T21:49:04.938Z,19.00
2018-06-08T21:51:33.509Z,19.10
2018-06-08T21:54:02.059Z,19.00
2018-06-08T21:56:30.608Z,19.00
2018-06-08T21:58:59.054Z,18.90
2018-06-08T22:01:27.525Z,18.90
2018-06-08T22:03:55.923Z,18.90
2018-06-08T22:06:24.367Z,18.90
2018-06-08T22:08:52.880Z,18.90
2018-06-08T22:11:21.328Z,18.80
2018-06-08T22:13:49.705Z,18.80
2018-06-08T22:16:18.208Z,18.80
2018-06-08T22:18:46.651Z,18.70
2018-06-08T22:21:15.164Z,18.70
2018-06-08T22:23:43.659Z,18.80
2018-06-08T22:26:12.198Z,18.60
2018-06-08T22:28:40.649Z,18.60
2018-06-08T22:31:09.102Z,18.60
2018-06-08T22:33:37.601Z,18.60
2018-06-08T22:36:05.935Z,18.50
2018-06-08T22:38:34.339Z,18.50
2018-06-08T22:41:02.786Z,18.40
2018-06-08T22:43:31.308Z,18.30
2018-06-08T22:45:59.764Z,18.40
2018-06-08T22:48:28.167Z,18.30
2018-06-08T22:50:56.598Z,18.30
2018-06-08T22:53:24.971Z,18.30
2018-06-08T22:55:53.328Z,18.30
2018-06-08T22:58:21.800Z,18.30
2018-06-08T23:00:50.332Z,18.40
2018-06-08T23:03:18.698Z,18.30
2018-06-08T23:05:47.117Z,18.20
2018-06-08T23:08:15.510Z,18.20
2018-06-08T23:10:43.977Z,18.20
2018-06-08T23:13:12.398Z,18.10
2018-06-08T23:15:40.835Z,18.10
2018-06-08T23:18:09.240Z,18.10
2018-06-08T23:20:37.655Z,18.10
2018-06-08T23:23:06.056Z,18.00
2018-06-08T23:25:34.566Z,17.90
2018-06-08T23:28:03.148Z,17.90
2018-06-08T23:30:31.663Z,18.00
2018-06-08T23:33:00.023Z,18.00
2018-06-08T23:35:28.455Z,18.00
2018-06-08T23:37:57.057Z,18.00
2018-06-08T23:40:25.608Z,17.90
2018-06-08T23:42:54.105Z,18.00
2018-06-08T23:45:22.696Z,18.00
2018-06-08T23:47:51.144Z,18.00
2018-06-08T23:50:19.549Z,18.00
2018-06-08T23:52:47.989Z,18.00
2018-06-08T23:55:16.412Z,17.90
2018-06-08T23:57:44.891Z,17.70
